Terminal Aerodrome Forecast
Issued by NWS

Current Version | Previous Version | Graphics & Text | Print | Product List | Glossary On
Versions: 1 2 3 4 5 6 7 8 9 10 11 12 13 14 15 16 17 18 19 20 21 22 23 24 25
000
FTUS41 KILN 181700
TAFLUK
TAF
KLUK 181740Z 1818/1918 05007KT P6SM SCT150 BKN200 OVC250
     FM182300 07008KT P6SM SCT120 OVC250
     FM190800 09012KT P6SM VCSH FEW050 OVC120
     FM191200 10012G20KT P6SM -SHRA SCT040 OVC060
     FM191500 12014G24KT 5SM -SHRA OVC025=

USA.gov is the U.S. government's official web portal to all federal, state and local government web resources and services.